Time;durP1;ratioP1;P1;durP2;ratioP2;P2;SDS_P1;SDS_P2;PMS_P1;PMS_P2;Temp;Humidity;BMP_temperature;BMP_pressure;BME280_temperature;BME280_humidity;BME280_pressure;Samples;Min_cycle;Max_cycle;Signal;HPM_P1;HPM_P2
2023/04/13 00:00:20;;;;;;;9.07;6.17;;;;;;;;;;5073380;28;20301;-88
2023/04/13 00:02:52;;;;;;;7.73;7.13;;;;;;;;;;5072611;28;20201;-87
2023/04/13 00:05:22;;;;;;;7.73;7.03;;;;;;;;;;5072797;28;20222;-88
2023/04/13 00:07:52;;;;;;;9.17;8.37;;;;;;;;;;5072677;28;20210;-87
2023/04/13 00:10:21;;;;;;;6.57;5.43;;;;;;;;;;5072075;28;20300;-87
2023/04/13 00:12:50;;;;;;;5.73;4.93;;;;;;;;;;5072589;28;20203;-88
2023/04/13 00:15:19;;;;;;;7.50;5.93;;;;;;;;;;5071920;28;20255;-88
2023/04/13 00:17:48;;;;;;;5.73;5.30;;;;;;;;;;5072370;28;20244;-88
2023/04/13 00:20:16;;;;;;;6.03;5.43;;;;;;;;;;5072248;28;20198;-88
2023/04/13 00:22:45;;;;;;;4.90;4.40;;;;;;;;;;5072123;28;20292;-88
2023/04/13 00:25:16;;;;;;;6.20;4.33;;;;;;;;;;5072325;28;20285;-88
2023/04/13 00:27:44;;;;;;;4.43;3.70;;;;;;;;;;5072392;28;20221;-87
2023/04/13 00:30:14;;;;;;;4.07;3.67;;;;;;;;;;5072288;28;20251;-87
2023/04/13 00:32:43;;;;;;;3.33;3.10;;;;;;;;;;5072000;28;20259;-87
2023/04/13 00:35:13;;;;;;;5.87;5.23;;;;;;;;;;5071941;28;20196;-87
2023/04/13 00:37:42;;;;;;;7.07;6.20;;;;;;;;;;5072014;28;20233;-87
2023/04/13 00:40:12;;;;;;;5.10;4.60;;;;;;;;;;5071907;28;20272;-88
2023/04/13 00:42:43;;;;;;;2.93;2.73;;;;;;;;;;5072283;28;20228;-88
2023/04/13 00:45:12;;;;;;;4.60;2.00;;;;;;;;;;5072860;28;20213;-88
2023/04/13 00:47:41;;;;;;;2.47;2.27;;;;;;;;;;5072381;28;20210;-88
2023/04/13 00:50:10;;;;;;;1.60;1.50;;;;;;;;;;5071818;28;20205;-87
2023/04/13 00:52:39;;;;;;;4.83;3.47;;;;;;;;;;5072227;28;20199;-88
2023/04/13 00:55:08;;;;;;;2.90;2.60;;;;;;;;;;5072440;28;20184;-88
2023/04/13 00:57:39;;;;;;;3.33;2.30;;;;;;;;;;5072179;28;20190;-87
2023/04/13 01:00:10;;;;;;;3.83;1.40;;;;;;;;;;5072423;28;20202;-87
2023/04/13 01:02:40;;;;;;;2.70;1.90;;;;;;;;;;5072618;28;20206;-88
2023/04/13 01:05:11;;;;;;;4.23;1.73;;;;;;;;;;5072003;28;20219;-88
2023/04/13 01:07:44;;;;;;;4.23;2.23;;;;;;;;;;5072239;28;20294;-88
2023/04/13 01:10:17;;;;;;;1.43;1.20;;;;;;;;;;5072071;28;20225;-88
2023/04/13 01:12:49;;;;;;;1.07;1.07;;;;;;;;;;5072133;28;20197;-87
2023/04/13 01:15:19;;;;;;;2.63;1.50;;;;;;;;;;5071231;28;20193;-88
2023/04/13 01:17:51;;;;;;;1.60;1.50;;;;;;;;;;5071293;28;20225;-88
2023/04/13 01:20:19;;;;;;;6.70;2.60;;;;;;;;;;5071116;28;20262;-87
2023/04/13 01:22:53;;;;;;;3.50;2.30;;;;;;;;;;5072060;28;20202;-88
2023/04/13 01:25:30;;;;;;;1.47;1.03;;;;;;;;;;5071676;28;20299;-87
2023/04/13 01:28:01;;;;;;;3.40;1.57;;;;;;;;;;5074707;28;20275;-88
2023/04/13 01:30:30;;;;;;;4.13;2.33;;;;;;;;;;5075806;28;20199;-88
2023/04/13 01:33:00;;;;;;;4.37;1.97;;;;;;;;;;5075252;28;20209;-88
2023/04/13 01:35:30;;;;;;;4.20;1.63;;;;;;;;;;5075491;28;20195;-87
2023/04/13 01:37:58;;;;;;;7.57;2.63;;;;;;;;;;5076332;28;20205;-88
2023/04/13 01:40:27;;;;;;;3.73;1.80;;;;;;;;;;5075137;28;20241;-87
2023/04/13 01:46:23;;;;;;;3.40;2.30;;;;;;;;;;5011579;28;20239;-84
2023/04/13 01:48:53;;;;;;;8.17;2.57;;;;;;;;;;5012629;28;20231;-84
2023/04/13 01:51:24;;;;;;;5.17;1.90;;;;;;;;;;5012831;28;20302;-84
2023/04/13 01:53:54;;;;;;;4.67;1.87;;;;;;;;;;5012793;28;20266;-84
2023/04/13 01:56:22;;;;;;;4.80;1.77;;;;;;;;;;5012814;28;20254;-87
2023/04/13 01:58:55;;;;;;;7.33;2.27;;;;;;;;;;5012661;28;20318;-88
2023/04/13 02:01:25;;;;;;;7.07;2.10;;;;;;;;;;5012748;28;20207;-88
2023/04/13 02:03:54;;;;;;;3.80;1.80;;;;;;;;;;5042479;28;20199;-88
2023/04/13 02:06:23;;;;;;;5.10;2.00;;;;;;;;;;5074329;28;20218;-87
2023/04/13 02:08:52;;;;;;;7.93;2.03;;;;;;;;;;5074862;28;20211;-88
2023/04/13 02:11:20;;;;;;;4.03;1.27;;;;;;;;;;5074731;28;20194;-88
2023/04/13 02:13:50;;;;;;;1.97;1.53;;;;;;;;;;5074642;28;20244;-87
2023/04/13 02:16:18;;;;;;;4.13;1.83;;;;;;;;;;5074758;28;20193;-87
2023/04/13 02:18:48;;;;;;;3.30;1.20;;;;;;;;;;5074634;28;20197;-87
2023/04/13 02:21:16;;;;;;;1.00;0.90;;;;;;;;;;5074252;28;20193;-87
2023/04/13 02:23:45;;;;;;;4.43;1.97;;;;;;;;;;5075059;28;20205;-88
2023/04/13 02:26:15;;;;;;;2.10;1.93;;;;;;;;;;5074302;28;20237;-88
2023/04/13 02:28:44;;;;;;;1.50;1.40;;;;;;;;;;5074304;28;20190;-88
2023/04/13 02:31:15;;;;;;;3.10;1.57;;;;;;;;;;5074188;28;20248;-87
2023/04/13 02:33:45;;;;;;;9.97;3.40;;;;;;;;;;5074303;28;20223;-88
2023/04/13 02:36:16;;;;;;;1.53;1.30;;;;;;;;;;5074325;28;20290;-88
2023/04/13 02:38:44;;;;;;;5.43;2.00;;;;;;;;;;5073745;28;20205;-87
2023/04/13 02:41:13;;;;;;;3.53;1.80;;;;;;;;;;5074186;28;20230;-88
2023/04/13 02:43:42;;;;;;;2.73;1.40;;;;;;;;;;5074367;28;20444;-88
2023/04/13 02:46:10;;;;;;;26.47;2.83;;;;;;;;;;5073982;28;20218;-88
2023/04/13 02:48:39;;;;;;;1.63;1.53;;;;;;;;;;5074316;28;20206;-88
2023/04/13 02:51:08;;;;;;;3.57;1.27;;;;;;;;;;5074080;28;20198;-88
2023/04/13 02:53:38;;;;;;;1.63;1.50;;;;;;;;;;5073862;28;20271;-87
2023/04/13 02:56:08;;;;;;;1.77;1.67;;;;;;;;;;5074377;28;20196;-88
2023/04/13 02:58:36;;;;;;;2.27;1.33;;;;;;;;;;5074034;28;20272;-88
2023/04/13 03:01:05;;;;;;;8.40;3.27;;;;;;;;;;5073883;28;20231;-88
2023/04/13 03:03:33;;;;;;;2.00;1.70;;;;;;;;;;5073877;28;20203;-88
2023/04/13 03:06:02;;;;;;;1.50;1.40;;;;;;;;;;5073901;28;20317;-88
2023/04/13 03:08:30;;;;;;;1.57;1.53;;;;;;;;;;5073688;28;20200;-88
2023/04/13 03:11:00;;;;;;;4.70;2.07;;;;;;;;;;5073906;28;20207;-88
2023/04/13 03:13:28;;;;;;;3.40;2.03;;;;;;;;;;5073868;28;20246;-88
2023/04/13 03:15:59;;;;;;;3.30;2.03;;;;;;;;;;5073394;28;20294;-88
2023/04/13 03:18:27;;;;;;;2.40;1.87;;;;;;;;;;5073667;28;20293;-88
2023/04/13 03:20:56;;;;;;;2.17;1.97;;;;;;;;;;5073730;28;20228;-88
2023/04/13 03:23:24;;;;;;;1.07;1.07;;;;;;;;;;5073372;28;20231;-88
2023/04/13 03:25:53;;;;;;;4.70;1.90;;;;;;;;;;5073398;28;20442;-87
2023/04/13 03:28:22;;;;;;;3.63;1.83;;;;;;;;;;5073603;28;20228;-88
2023/04/13 03:30:51;;;;;;;2.87;1.77;;;;;;;;;;5072921;28;20269;-88
2023/04/13 03:33:19;;;;;;;4.77;1.80;;;;;;;;;;5073335;28;20206;-88
2023/04/13 03:35:48;;;;;;;13.90;2.30;;;;;;;;;;5073116;28;20269;-88
2023/04/13 03:38:16;;;;;;;2.10;1.53;;;;;;;;;;5072803;28;20230;-88
2023/04/13 03:40:45;;;;;;;4.07;3.63;;;;;;;;;;5073253;28;20302;-88
2023/04/13 03:43:13;;;;;;;3.57;2.33;;;;;;;;;;5073174;28;20306;-87
2023/04/13 03:45:43;;;;;;;9.00;2.80;;;;;;;;;;5072476;28;20265;-88
2023/04/13 03:48:11;;;;;;;8.93;2.80;;;;;;;;;;5073002;28;20228;-88
2023/04/13 03:50:40;;;;;;;5.90;2.73;;;;;;;;;;5071805;28;20238;-88
2023/04/13 03:53:08;;;;;;;3.50;2.13;;;;;;;;;;5073366;28;20207;-88
2023/04/13 03:55:37;;;;;;;2.57;1.77;;;;;;;;;;5072608;28;20208;-88
2023/04/13 03:58:06;;;;;;;5.87;2.37;;;;;;;;;;5072712;28;20286;-88
2023/04/13 04:00:34;;;;;;;2.83;2.10;;;;;;;;;;5072482;28;20202;-88
2023/04/13 04:03:04;;;;;;;11.00;2.70;;;;;;;;;;5072612;28;20297;-88
2023/04/13 04:05:33;;;;;;;4.70;2.30;;;;;;;;;;5072652;28;20214;-87
2023/04/13 04:08:01;;;;;;;2.00;1.90;;;;;;;;;;5072610;28;20203;-88
2023/04/13 04:10:29;;;;;;;5.73;2.33;;;;;;;;;;5072396;28;20200;-88
2023/04/13 04:12:58;;;;;;;1.67;1.47;;;;;;;;;;5073108;28;20295;-88
2023/04/13 04:15:29;;;;;;;3.47;2.13;;;;;;;;;;5072913;28;20238;-88
2023/04/13 04:17:58;;;;;;;6.60;1.83;;;;;;;;;;5072362;28;20240;-88
2023/04/13 04:20:27;;;;;;;6.07;2.50;;;;;;;;;;5072949;28;20204;-88
2023/04/13 04:22:59;;;;;;;4.07;2.13;;;;;;;;;;5073484;28;20202;-88
2023/04/13 04:25:28;;;;;;;2.90;1.90;;;;;;;;;;5073053;28;20260;-88
2023/04/13 04:28:01;;;;;;;4.93;2.43;;;;;;;;;;5073314;28;20235;-88
2023/04/13 04:30:32;;;;;;;6.20;2.00;;;;;;;;;;5073434;28;20233;-88
2023/04/13 04:33:01;;;;;;;6.20;2.70;;;;;;;;;;5072497;28;20207;-88
2023/04/13 04:35:34;;;;;;;3.50;2.23;;;;;;;;;;5072985;28;20217;-88
2023/04/13 04:38:04;;;;;;;4.93;2.73;;;;;;;;;;5055062;28;20207;-88
2023/04/13 04:40:34;;;;;;;2.10;1.73;;;;;;;;;;5072367;28;20232;-87
2023/04/13 04:43:03;;;;;;;4.73;1.93;;;;;;;;;;5065207;28;20207;-87
2023/04/13 04:45:35;;;;;;;3.77;1.77;;;;;;;;;;5069589;28;20209;-87
2023/04/13 04:48:04;;;;;;;3.13;2.00;;;;;;;;;;5068555;28;20199;-86
2023/04/13 04:50:37;;;;;;;10.47;2.23;;;;;;;;;;5065393;28;20292;-88
2023/04/13 04:53:05;;;;;;;3.30;2.13;;;;;;;;;;5073932;28;20218;-88
2023/04/13 04:55:37;;;;;;;3.73;2.53;;;;;;;;;;5072739;28;20290;-89
2023/04/13 04:58:05;;;;;;;4.53;1.60;;;;;;;;;;5071533;28;20298;-89
2023/04/13 05:00:34;;;;;;;2.60;1.50;;;;;;;;;;5072804;28;20268;-89
2023/04/13 05:03:02;;;;;;;3.07;2.57;;;;;;;;;;5072468;28;20210;-88
2023/04/13 05:05:31;;;;;;;11.97;2.40;;;;;;;;;;5073072;28;20298;-82
2023/04/13 05:08:01;;;;;;;8.07;1.77;;;;;;;;;;5072924;28;20236;-88
2023/04/13 05:10:30;;;;;;;6.33;2.13;;;;;;;;;;5072716;28;20224;-88
2023/04/13 05:12:58;;;;;;;3.37;2.23;;;;;;;;;;5072293;28;20195;-88
2023/04/13 05:15:27;;;;;;;1.03;1.03;;;;;;;;;;5072320;28;20198;-88
2023/04/13 05:17:55;;;;;;;2.37;1.70;;;;;;;;;;5072815;28;20209;-88
2023/04/13 05:20:26;;;;;;;4.00;1.83;;;;;;;;;;5073284;28;20206;-89
2023/04/13 05:22:56;;;;;;;4.97;1.83;;;;;;;;;;5073087;28;20205;-88
2023/04/13 05:25:26;;;;;;;3.03;2.03;;;;;;;;;;5072415;28;20195;-88
2023/04/13 05:27:55;;;;;;;3.70;1.70;;;;;;;;;;5073215;28;20223;-88
2023/04/13 05:30:23;;;;;;;9.10;1.90;;;;;;;;;;5072766;28;20232;-89
2023/04/13 05:32:52;;;;;;;5.00;2.10;;;;;;;;;;5072263;28;20232;-87
2023/04/13 05:35:22;;;;;;;1.43;1.37;;;;;;;;;;5072236;28;20205;-88
2023/04/13 05:37:50;;;;;;;2.67;1.40;;;;;;;;;;5072575;28;20200;-88
2023/04/13 05:40:19;;;;;;;2.93;1.40;;;;;;;;;;5071752;28;20246;-88
2023/04/13 05:42:49;;;;;;;1.70;1.60;;;;;;;;;;5071585;28;20199;-87
2023/04/13 05:45:18;;;;;;;1.80;1.40;;;;;;;;;;5071782;28;20206;-88
2023/04/13 05:47:46;;;;;;;1.70;1.20;;;;;;;;;;5072047;28;20232;-87
2023/04/13 05:50:15;;;;;;;3.37;1.53;;;;;;;;;;5072210;28;20203;-85
2023/04/13 05:52:43;;;;;;;1.07;1.00;;;;;;;;;;5071575;28;20219;-87
2023/04/13 05:55:12;;;;;;;2.47;1.80;;;;;;;;;;5071594;28;20193;-87
2023/04/13 05:57:40;;;;;;;4.93;1.70;;;;;;;;;;5070940;28;20199;-84
2023/04/13 06:00:11;;;;;;;4.40;1.47;;;;;;;;;;5070755;28;20219;-84
2023/04/13 06:02:40;;;;;;;2.13;1.73;;;;;;;;;;5070887;28;20209;-84
2023/04/13 06:05:12;;;;;;;3.10;1.33;;;;;;;;;;5070550;28;20203;-84
2023/04/13 06:07:43;;;;;;;2.10;1.60;;;;;;;;;;5070864;28;20255;-84
2023/04/13 06:10:13;;;;;;;5.70;2.83;;;;;;;;;;5071094;28;20198;-84
2023/04/13 06:12:41;;;;;;;5.47;2.53;;;;;;;;;;5071635;28;20190;-83
2023/04/13 06:15:12;;;;;;;8.30;2.40;;;;;;;;;;5074265;28;20245;-84
2023/04/13 06:17:40;;;;;;;4.03;2.00;;;;;;;;;;5074730;28;20217;-83
2023/04/13 06:20:10;;;;;;;2.10;1.70;;;;;;;;;;5073937;28;20255;-83
2023/04/13 06:22:40;;;;;;;5.27;2.23;;;;;;;;;;5074395;28;20202;-84
2023/04/13 06:25:10;;;;;;;2.53;2.33;;;;;;;;;;5074145;28;20297;-83
2023/04/13 06:27:39;;;;;;;8.17;3.80;;;;;;;;;;5073921;28;20227;-83
2023/04/13 06:30:09;;;;;;;1.30;1.30;;;;;;;;;;5074773;28;20207;-83
2023/04/13 06:32:38;;;;;;;5.73;1.90;;;;;;;;;;5074178;28;20202;-83
2023/04/13 06:35:07;;;;;;;3.40;1.30;;;;;;;;;;5073849;28;20197;-83
2023/04/13 06:37:36;;;;;;;21.27;6.30;;;;;;;;;;5074009;28;20237;-83
2023/04/13 06:40:11;;;;;;;7.13;2.07;;;;;;;;;;5073754;28;20240;-83
2023/04/13 06:42:40;;;;;;;5.87;2.00;;;;;;;;;;5074208;28;20202;-85
2023/04/13 06:45:09;;;;;;;1.90;1.70;;;;;;;;;;5074132;28;20203;-84
2023/04/13 06:47:40;;;;;;;1.13;1.03;;;;;;;;;;5074037;28;20258;-84
2023/04/13 06:50:10;;;;;;;10.40;2.30;;;;;;;;;;5073950;28;20227;-84
2023/04/13 06:52:38;;;;;;;4.43;1.60;;;;;;;;;;5074139;28;20277;-84
2023/04/13 06:55:07;;;;;;;4.53;1.40;;;;;;;;;;5073982;28;20376;-84
2023/04/13 06:57:36;;;;;;;9.03;2.67;;;;;;;;;;5074066;28;20196;-85
2023/04/13 07:00:05;;;;;;;4.30;2.83;;;;;;;;;;5073711;28;20202;-84
2023/04/13 07:02:52;;;;;;;3.10;1.80;;;;;;;;;;5074167;28;20205;-84
2023/04/13 07:05:21;;;;;;;5.13;1.83;;;;;;;;;;5073783;28;20247;-85
2023/04/13 07:07:50;;;;;;;7.80;3.83;;;;;;;;;;5073510;28;20226;-84
2023/04/13 07:10:18;;;;;;;6.00;2.30;;;;;;;;;;5073740;28;20203;-84
2023/04/13 07:12:47;;;;;;;1.57;1.33;;;;;;;;;;5073648;28;20203;-85
2023/04/13 07:15:15;;;;;;;1.97;1.43;;;;;;;;;;5073256;28;20200;-83
2023/04/13 07:17:44;;;;;;;3.37;2.40;;;;;;;;;;5073502;28;20295;-84
2023/04/13 07:20:15;;;;;;;5.47;3.03;;;;;;;;;;5073629;28;20250;-84
2023/04/13 07:22:43;;;;;;;12.50;2.30;;;;;;;;;;5072751;28;20207;-84
2023/04/13 07:25:12;;;;;;;4.33;1.93;;;;;;;;;;5072012;28;20203;-85
2023/04/13 07:27:40;;;;;;;1.73;1.17;;;;;;;;;;5073440;28;20258;-85
2023/04/13 07:30:09;;;;;;;3.17;2.03;;;;;;;;;;5072931;28;20198;-85
2023/04/13 07:32:37;;;;;;;8.73;2.50;;;;;;;;;;5073206;28;20221;-85
2023/04/13 07:35:06;;;;;;;5.63;2.30;;;;;;;;;;5073184;28;20202;-85
2023/04/13 07:37:36;;;;;;;4.90;2.67;;;;;;;;;;5073117;28;20248;-84
2023/04/13 07:40:05;;;;;;;3.83;3.10;;;;;;;;;;5072722;28;20231;-84
2023/04/13 07:42:34;;;;;;;11.50;4.13;;;;;;;;;;5073196;28;20207;-84
2023/04/13 07:45:03;;;;;;;4.13;2.40;;;;;;;;;;5072281;28;20205;-84
2023/04/13 07:47:32;;;;;;;5.00;2.37;;;;;;;;;;5072609;28;20254;-84
2023/04/13 07:50:00;;;;;;;4.23;2.03;;;;;;;;;;5072534;28;20230;-84
2023/04/13 07:52:29;;;;;;;9.43;2.63;;;;;;;;;;5072267;28;20257;-84
2023/04/13 07:54:58;;;;;;;9.93;3.17;;;;;;;;;;5072884;28;20258;-84
2023/04/13 07:57:27;;;;;;;7.23;3.27;;;;;;;;;;5072714;28;20201;-84
2023/04/13 07:59:55;;;;;;;8.33;3.67;;;;;;;;;;5072767;28;20232;-84
2023/04/13 08:02:24;;;;;;;11.00;3.27;;;;;;;;;;5072439;28;20203;-84
2023/04/13 08:04:53;;;;;;;7.23;3.87;;;;;;;;;;5072384;28;20211;-84
2023/04/13 08:07:21;;;;;;;9.77;2.50;;;;;;;;;;5072265;28;20235;-84
2023/04/13 08:09:51;;;;;;;7.07;2.30;;;;;;;;;;5072309;28;20208;-84
2023/04/13 08:12:21;;;;;;;10.50;2.87;;;;;;;;;;5072359;28;20208;-84
2023/04/13 08:14:50;;;;;;;2.93;1.70;;;;;;;;;;5072089;28;20242;-85
2023/04/13 08:17:18;;;;;;;1.67;1.27;;;;;;;;;;5072034;28;20204;-85
2023/04/13 08:19:47;;;;;;;3.73;1.60;;;;;;;;;;5072812;28;20208;-84
2023/04/13 08:22:17;;;;;;;4.53;2.53;;;;;;;;;;5072252;28;20243;-84
2023/04/13 08:24:46;;;;;;;6.13;2.87;;;;;;;;;;5071995;28;20220;-85
2023/04/13 08:27:14;;;;;;;5.00;1.90;;;;;;;;;;5072695;28;20223;-84
2023/04/13 08:29:45;;;;;;;12.40;4.07;;;;;;;;;;5072148;28;20217;-84
2023/04/13 08:32:13;;;;;;;8.77;3.60;;;;;;;;;;5072082;28;20204;-84
2023/04/13 08:34:42;;;;;;;6.07;2.60;;;;;;;;;;5072265;28;20262;-83
2023/04/13 08:37:14;;;;;;;8.13;3.73;;;;;;;;;;5071802;28;20209;-83
2023/04/13 08:39:42;;;;;;;9.40;2.47;;;;;;;;;;5072032;28;20278;-83
2023/04/13 08:42:11;;;;;;;11.20;3.50;;;;;;;;;;5071945;28;20297;-84
2023/04/13 08:44:41;;;;;;;9.00;3.23;;;;;;;;;;5072154;28;20274;-84
2023/04/13 08:47:11;;;;;;;7.43;2.77;;;;;;;;;;5071644;28;20208;-83
2023/04/13 08:49:41;;;;;;;6.90;2.53;;;;;;;;;;5071849;28;20290;-83
2023/04/13 08:52:10;;;;;;;7.57;3.97;;;;;;;;;;5072053;28;20212;-84
2023/04/13 08:54:42;;;;;;;12.53;2.37;;;;;;;;;;5071330;28;20215;-83
2023/04/13 08:57:10;;;;;;;11.90;2.80;;;;;;;;;;5071704;28;20207;-84
2023/04/13 08:59:41;;;;;;;11.17;2.47;;;;;;;;;;5071550;28;20212;-82
2023/04/13 09:02:10;;;;;;;4.90;1.97;;;;;;;;;;5071253;28;20211;-83
2023/04/13 09:04:42;;;;;;;6.13;2.17;;;;;;;;;;5071589;28;20201;-83
2023/04/13 09:07:13;;;;;;;6.17;2.50;;;;;;;;;;5071473;28;20198;-83
2023/04/13 09:09:42;;;;;;;5.87;2.73;;;;;;;;;;5071785;28;20220;-83
2023/04/13 09:12:11;;;;;;;24.43;2.30;;;;;;;;;;5071633;28;20232;-82
2023/04/13 09:14:41;;;;;;;5.67;1.80;;;;;;;;;;5072145;28;20212;-83
2023/04/13 09:17:09;;;;;;;6.13;2.17;;;;;;;;;;5071386;28;20288;-83
2023/04/13 09:19:38;;;;;;;3.40;2.27;;;;;;;;;;5071568;28;20296;-83
2023/04/13 09:22:14;;;;;;;5.73;3.37;;;;;;;;;;5071471;28;20236;-83
2023/04/13 09:24:43;;;;;;;8.97;2.97;;;;;;;;;;5071275;28;20211;-83
2023/04/13 09:27:19;;;;;;;5.43;2.13;;;;;;;;;;5071289;28;20241;-83
2023/04/13 09:29:51;;;;;;;9.37;3.43;;;;;;;;;;5071214;28;20217;-82
2023/04/13 09:32:21;;;;;;;7.63;3.03;;;;;;;;;;5071107;28;20208;-83
2023/04/13 09:35:01;;;;;;;5.47;2.63;;;;;;;;;;5071321;28;20300;-83
2023/04/13 09:37:32;;;;;;;12.13;2.87;;;;;;;;;;5071109;28;20240;-84
2023/04/13 09:40:11;;;;;;;10.83;4.17;;;;;;;;;;5071169;28;20233;-84
2023/04/13 09:42:41;;;;;;;6.67;2.33;;;;;;;;;;5071679;28;20208;-83
2023/04/13 09:45:10;;;;;;;13.70;3.43;;;;;;;;;;5071266;28;20196;-84
2023/04/13 09:47:39;;;;;;;7.63;2.97;;;;;;;;;;5071835;28;20192;-83
2023/04/13 09:50:17;;;;;;;12.33;2.57;;;;;;;;;;5075118;28;20217;-84
2023/04/13 09:52:47;;;;;;;4.37;2.17;;;;;;;;;;5075150;28;20272;-84
2023/04/13 09:55:19;;;;;;;10.40;3.33;;;;;;;;;;5074902;28;20233;-84
2023/04/13 09:57:47;;;;;;;7.50;2.40;;;;;;;;;;5074853;28;20200;-84
2023/04/13 10:00:19;;;;;;;12.67;3.87;;;;;;;;;;5075226;28;20193;-84
2023/04/13 10:02:49;;;;;;;4.13;2.20;;;;;;;;;;5074488;28;20206;-84
2023/04/13 10:05:18;;;;;;;4.50;2.80;;;;;;;;;;5074724;28;20205;-83
2023/04/13 10:07:50;;;;;;;5.73;2.07;;;;;;;;;;5074832;28;20194;-84
2023/04/13 10:10:20;;;;;;;6.00;3.30;;;;;;;;;;5074479;28;20294;-83
2023/04/13 10:12:54;;;;;;;3.80;2.20;;;;;;;;;;5074346;28;20196;-82
2023/04/13 10:15:29;;;;;;;8.23;1.93;;;;;;;;;;5074575;28;20194;-83
2023/04/13 10:18:06;;;;;;;15.97;3.07;;;;;;;;;;5074472;28;20299;-84
2023/04/13 10:20:35;;;;;;;5.97;2.80;;;;;;;;;;5074145;28;20200;-84
2023/04/13 10:23:06;;;;;;;5.40;2.10;;;;;;;;;;5074847;28;20255;-83
2023/04/13 10:25:38;;;;;;;3.33;2.67;;;;;;;;;;5074460;28;20197;-83
2023/04/13 10:28:07;;;;;;;7.57;2.20;;;;;;;;;;5074283;28;20312;-83
2023/04/13 10:30:35;;;;;;;6.40;2.13;;;;;;;;;;5074357;28;20218;-82
2023/04/13 10:33:05;;;;;;;5.53;1.93;;;;;;;;;;5074091;28;20213;-83
2023/04/13 10:35:37;;;;;;;4.93;1.73;;;;;;;;;;5074223;28;20206;-83
2023/04/13 10:38:11;;;;;;;5.47;2.00;;;;;;;;;;5074049;28;20201;-83
2023/04/13 10:40:43;;;;;;;6.70;2.73;;;;;;;;;;5076353;28;20233;-83
2023/04/13 10:43:12;;;;;;;7.77;6.93;;;;;;;;;;5075320;28;20229;-83
2023/04/13 10:45:40;;;;;;;2.90;1.67;;;;;;;;;;5077173;28;20205;-83
2023/04/13 10:48:21;;;;;;;5.27;2.43;;;;;;;;;;5077204;28;20206;-82
2023/04/13 10:50:58;;;;;;;4.50;1.37;;;;;;;;;;5076796;28;20217;-84
2023/04/13 10:53:29;;;;;;;6.93;1.83;;;;;;;;;;5075621;28;20193;-82
2023/04/13 10:55:58;;;;;;;7.70;2.37;;;;;;;;;;5074321;28;20210;-82
2023/04/13 10:58:27;;;;;;;5.37;2.60;;;;;;;;;;5073238;28;20229;-81
2023/04/13 11:00:59;;;;;;;8.30;2.00;;;;;;;;;;5074081;28;20232;-82
2023/04/13 11:03:28;;;;;;;11.23;3.07;;;;;;;;;;5073368;28;20201;-82
2023/04/13 11:05:58;;;;;;;6.73;2.73;;;;;;;;;;5073183;28;20190;-82
2023/04/13 11:08:26;;;;;;;17.73;4.97;;;;;;;;;;5073828;28;20202;-81
2023/04/13 11:10:57;;;;;;;3.57;2.17;;;;;;;;;;5073286;28;20245;-82
2023/04/13 11:13:27;;;;;;;6.80;3.87;;;;;;;;;;5073102;28;20193;-82
2023/04/13 11:16:03;;;;;;;4.43;2.20;;;;;;;;;;5073919;28;20200;-82
2023/04/13 11:18:32;;;;;;;2.83;1.70;;;;;;;;;;5073873;28;20208;-82
2023/04/13 11:21:02;;;;;;;5.40;1.70;;;;;;;;;;5072974;28;20230;-84
2023/04/13 11:23:35;;;;;;;5.23;2.53;;;;;;;;;;5073320;28;20185;-84
2023/04/13 11:26:05;;;;;;;5.70;2.60;;;;;;;;;;5073831;28;20205;-84
2023/04/13 11:28:38;;;;;;;7.20;2.17;;;;;;;;;;5072926;28;20213;-84
2023/04/13 11:31:07;;;;;;;10.37;2.33;;;;;;;;;;5072882;28;20227;-84
2023/04/13 11:33:36;;;;;;;3.13;2.03;;;;;;;;;;5073189;28;20244;-84
2023/04/13 11:36:08;;;;;;;12.10;3.57;;;;;;;;;;5073049;28;20256;-84
2023/04/13 11:38:40;;;;;;;8.50;4.03;;;;;;;;;;5072854;28;20198;-84
2023/04/13 11:41:10;;;;;;;10.83;2.63;;;;;;;;;;5073048;28;20229;-84
2023/04/13 11:43:47;;;;;;;3.87;2.13;;;;;;;;;;5072564;28;20201;-85
2023/04/13 11:46:23;;;;;;;7.87;2.27;;;;;;;;;;5072959;28;20244;-84
2023/04/13 11:48:53;;;;;;;13.60;2.70;;;;;;;;;;5072903;28;20291;-84
2023/04/13 11:51:22;;;;;;;5.30;2.00;;;;;;;;;;5072856;28;20214;-84
2023/04/13 11:53:51;;;;;;;10.03;2.80;;;;;;;;;;5072837;28;20240;-84
2023/04/13 11:56:22;;;;;;;6.67;2.87;;;;;;;;;;5072715;28;20197;-84
2023/04/13 11:58:52;;;;;;;6.20;1.80;;;;;;;;;;5072648;28;20312;-84
2023/04/13 12:01:22;;;;;;;5.73;2.70;;;;;;;;;;5072430;28;20182;-84
2023/04/13 12:04:02;;;;;;;5.73;1.93;;;;;;;;;;5072606;28;20193;-84
2023/04/13 12:06:43;;;;;;;3.83;2.83;;;;;;;;;;5072157;28;20255;-84
2023/04/13 12:09:13;;;;;;;7.73;4.10;;;;;;;;;;5072260;28;20220;-84
2023/04/13 12:11:52;;;;;;;3.27;2.23;;;;;;;;;;5071767;28;20220;-84
2023/04/13 12:14:41;;;;;;;8.33;2.67;;;;;;;;;;5071938;28;20206;-83
2023/04/13 12:17:12;;;;;;;4.20;2.20;;;;;;;;;;5072544;28;20217;-84
2023/04/13 12:20:02;;;;;;;7.67;2.80;;;;;;;;;;5072105;28;20202;-83
2023/04/13 12:22:38;;;;;;;3.27;2.03;;;;;;;;;;5071958;28;20208;-83
2023/04/13 12:25:24;;;;;;;7.27;2.13;;;;;;;;;;5071976;28;20205;-83
2023/04/13 12:27:57;;;;;;;3.73;2.03;;;;;;;;;;5069288;28;20241;-83
2023/04/13 12:30:26;;;;;;;7.97;2.10;;;;;;;;;;5069969;28;20251;-83
2023/04/13 12:32:56;;;;;;;7.60;2.23;;;;;;;;;;5060526;28;20300;-84
2023/04/13 12:35:30;;;;;;;5.63;1.93;;;;;;;;;;5060982;28;20201;-84
2023/04/13 12:38:01;;;;;;;4.13;1.27;;;;;;;;;;5062445;28;20243;-84
2023/04/13 12:40:30;;;;;;;4.43;1.70;;;;;;;;;;5065795;28;20233;-83
2023/04/13 12:43:00;;;;;;;4.57;1.43;;;;;;;;;;5064235;28;20296;-82
2023/04/13 12:45:29;;;;;;;3.50;2.47;;;;;;;;;;5066277;28;20252;-82
2023/04/13 12:47:58;;;;;;;4.70;1.70;;;;;;;;;;5068714;28;20198;-82
2023/04/13 12:50:27;;;;;;;7.30;1.90;;;;;;;;;;5067372;28;20218;-83
2023/04/13 12:52:56;;;;;;;6.47;2.03;;;;;;;;;;5077509;28;20206;-82
2023/04/13 12:55:24;;;;;;;3.03;2.13;;;;;;;;;;5073257;28;20206;-81
2023/04/13 12:57:53;;;;;;;6.67;1.90;;;;;;;;;;5072780;28;20216;-82
2023/04/13 13:00:25;;;;;;;8.50;2.13;;;;;;;;;;5081201;28;20201;-83
2023/04/13 13:02:54;;;;;;;4.67;2.50;;;;;;;;;;5080399;28;20201;-83
2023/04/13 13:05:40;;;;;;;2.80;1.13;;;;;;;;;;5072020;28;20206;-82
2023/04/13 13:08:09;;;;;;;2.67;1.97;;;;;;;;;;5073925;28;20217;-83
2023/04/13 13:10:38;;;;;;;6.60;2.53;;;;;;;;;;5069711;28;20224;-84
2023/04/13 13:13:07;;;;;;;6.47;2.27;;;;;;;;;;5070395;28;20294;-82
2023/04/13 13:15:37;;;;;;;7.70;3.40;;;;;;;;;;5092350;28;20220;-83
2023/04/13 13:18:07;;;;;;;6.33;2.20;;;;;;;;;;5076592;28;20230;-83
2023/04/13 13:20:39;;;;;;;4.07;2.00;;;;;;;;;;5080420;28;20203;-83
2023/04/13 13:23:10;;;;;;;2.90;1.87;;;;;;;;;;5076085;28;20234;-85
2023/04/13 13:25:39;;;;;;;5.83;1.77;;;;;;;;;;5075298;28;20239;-84
2023/04/13 13:28:17;;;;;;;5.90;3.07;;;;;;;;;;5080105;28;20287;-85
2023/04/13 13:30:50;;;;;;;5.73;2.80;;;;;;;;;;5067820;28;20209;-85
2023/04/13 13:33:22;;;;;;;5.03;2.27;;;;;;;;;;5062659;28;20224;-85
2023/04/13 13:35:53;;;;;;;8.37;2.83;;;;;;;;;;5057294;28;20278;-84
2023/04/13 13:38:21;;;;;;;6.60;2.40;;;;;;;;;;5058449;28;20198;-84
2023/04/13 13:40:50;;;;;;;5.97;2.77;;;;;;;;;;5063588;28;20230;-84
2023/04/13 13:43:20;;;;;;;6.43;2.30;;;;;;;;;;5067942;28;20259;-84
2023/04/13 13:45:49;;;;;;;9.20;2.17;;;;;;;;;;5067344;28;20201;-86
2023/04/13 13:48:22;;;;;;;4.77;2.03;;;;;;;;;;5067396;28;20292;-85
2023/04/13 13:50:51;;;;;;;7.70;2.20;;;;;;;;;;5056907;28;20218;-84
2023/04/13 13:53:19;;;;;;;6.43;3.57;;;;;;;;;;5058368;28;20241;-84
2023/04/13 13:55:49;;;;;;;4.27;2.93;;;;;;;;;;5064669;28;20205;-83
2023/04/13 13:58:18;;;;;;;6.10;3.03;;;;;;;;;;5062622;28;20275;-83
2023/04/13 14:00:49;;;;;;;3.67;2.13;;;;;;;;;;5064482;28;20207;-83
2023/04/13 14:03:18;;;;;;;4.93;3.20;;;;;;;;;;5055992;28;20263;-84
2023/04/13 14:05:48;;;;;;;7.97;3.70;;;;;;;;;;5060820;28;20237;-83
2023/04/13 14:08:17;;;;;;;2.03;1.83;;;;;;;;;;5065113;28;20292;-85
2023/04/13 14:10:48;;;;;;;9.90;3.10;;;;;;;;;;5053699;28;20213;-86
2023/04/13 14:13:17;;;;;;;6.87;1.97;;;;;;;;;;5062837;28;20213;-85
2023/04/13 14:15:45;;;;;;;5.67;2.60;;;;;;;;;;5067347;28;20204;-84
2023/04/13 14:18:22;;;;;;;8.93;3.47;;;;;;;;;;5060273;28;20197;-84
2023/04/13 14:20:52;;;;;;;11.00;4.53;;;;;;;;;;5063890;28;20185;-85
2023/04/13 14:23:21;;;;;;;12.40;3.33;;;;;;;;;;5056731;28;20237;-85
2023/04/13 14:25:50;;;;;;;7.90;2.83;;;;;;;;;;5058213;28;20209;-84
2023/04/13 14:28:19;;;;;;;11.53;2.70;;;;;;;;;;5060568;28;20234;-83
2023/04/13 14:30:50;;;;;;;7.57;2.17;;;;;;;;;;5067781;28;20205;-84
2023/04/13 14:33:18;;;;;;;15.50;3.23;;;;;;;;;;5070922;28;20205;-84
2023/04/13 14:35:48;;;;;;;5.57;2.63;;;;;;;;;;5068527;28;20255;-84
2023/04/13 14:38:21;;;;;;;4.17;2.97;;;;;;;;;;5069149;28;20224;-85
2023/04/13 14:40:50;;;;;;;11.50;2.77;;;;;;;;;;5058731;28;20237;-84
2023/04/13 14:43:18;;;;;;;8.43;2.13;;;;;;;;;;5067663;28;20221;-84
2023/04/13 14:45:47;;;;;;;6.50;2.00;;;;;;;;;;5068177;28;20207;-81
2023/04/13 14:48:16;;;;;;;6.60;2.30;;;;;;;;;;5070853;28;20255;-82
2023/04/13 14:50:46;;;;;;;11.70;2.30;;;;;;;;;;5064604;28;20205;-81
2023/04/13 14:53:14;;;;;;;8.80;3.53;;;;;;;;;;5061212;28;20261;-82
2023/04/13 14:55:44;;;;;;;6.37;2.07;;;;;;;;;;5064798;28;20209;-81
2023/04/13 14:58:13;;;;;;;3.77;1.93;;;;;;;;;;5076011;28;20202;-83
2023/04/13 15:00:47;;;;;;;4.67;2.33;;;;;;;;;;5078557;28;20209;-84